Eems Trader — V2DE3 — position and weather

sailwx.info

Track history (hours):
 
Tides and Currents Weather Stations Pressure Air Temp Water Temp Dewpoint Dewpoint Depression Visibility Wind Speed Wind Dir Waves Ship Positions

Eems Trader

Last reported at 2014-Oct-21 19:33 UTC. Time now 2014-Oct-23 03:05 UTC.
Position N 39°23' E 008°14'.

; draft 4.3 m.

Type: Cargo ship. MMSI: 305182000.

Date/timePositionNaut miles runAvg speedWind from/ knotsBaromVisibWave heightAir tempDewpointWater temp
2014-Oct-21 19:33N 39°23' E 008°14'21 9.8
2014-Oct-21 17:27N 39°43' E 008°21'14 0.4
2014-Oct-20 07:06N 39°52' E 008°34'15 5.5
2014-Oct-20 04:27N 39°48' E 008°16'8 8.4
2014-Oct-20 03:33N 39°53' E 008°08'73 8.9
2014-Oct-19 19:22N 40°52' E 007°13'8 9.2
2014-Oct-19 18:33N 40°59' E 007°08'9 9.2
2014-Oct-19 17:32N 41°06' E 007°01'10 9.0
2014-Oct-19 16:23N 41°15' E 006°53'7 8.8
2014-Oct-19 15:33N 41°21' E 006°48'9 8.7
2014-Oct-19 14:33N 41°28' E 006°41'9 8.6
2014-Oct-19 13:31N 41°35' E 006°34'10 8.8
2014-Oct-19 12:23N 41°43' E 006°26'11 9.0
2014-Oct-19 11:11N 41°52' E 006°18'8 8.9
2014-Oct-19 10:16N 41°59' E 006°11'52 6.7
2014-Oct-19 02:27N 42°41' E 005°30'22 7.4
2014-Oct-18 23:25N 42°59' E 005°12'6 7.4
2014-Oct-18 22:33N 43°04' E 005°07'8 7.8
2014-Oct-18 21:33N 43°11' E 005°01'8 7.8
2014-Oct-18 20:33N 43°18' E 004°57'6 6.3
2014-Oct-18 19:33N 43°24' E 004°53'3 3.4
2014-Oct-18 18:33N 43°23' E 004°49'5 5.3
2014-Oct-18 17:33N 43°28' E 004°45'8 7.6
2014-Oct-18 16:33N 43°35' E 004°41'3 0.2
2014-Oct-18 01:09N 43°37' E 004°39'4 6.1
2014-Oct-18 00:33N 43°34' E 004°41'7 7.4
2014-Oct-17 23:34N 43°27' E 004°45'5 5.0
2014-Oct-17 22:34N 43°23' E 004°49'4 4.1
2014-Oct-17 21:33N 43°24' E 004°54'7 6.7
2014-Oct-17 20:33N 43°18' E 004°60'8 8.4
2014-Oct-17 19:33N 43°11' E 005°05'12 9.0
2014-Oct-17 18:13N 43°05' E 005°19'8 9.5
2014-Oct-17 17:25N 43°02' E 005°29'9 8.1
2014-Oct-17 16:17N 42°58' E 005°40'6 8.4
2014-Oct-17 15:33N 42°55' E 005°48'11 8.8
2014-Oct-17 14:19N 42°54' E 006°02'8 9.1
2014-Oct-17 13:25N 42°54' E 006°14'16 8.1
2014-Oct-17 11:30N 42°57' E 006°34'7 7.8
2014-Oct-17 10:33N 43°00' E 006°44'8 7.8
2014-Oct-17 09:33N 43°05' E 006°52'6 6.0
2014-Oct-17 08:33N 43°08' E 006°59'8 8.4
2014-Oct-17 07:33N 43°13' E 007°09'78 8.5
2014-Oct-16 22:22N 44°02' E 008°33'7 8.4
2014-Oct-16 21:33N 44°07' E 008°40'8 8.2
2014-Oct-16 20:33N 44°13' E 008°48'8 8.1
2014-Oct-16 19:32N 44°19' E 008°56'5 5.3
2014-Oct-16 18:33N 44°24' E 008°54'0 0.0
2014-Oct-16 17:22N 44°24' E 008°54'0 0.0
2014-Oct-16 16:31N 44°24' E 008°54'0 0.0
2014-Oct-16 15:31N 44°24' E 008°54'0 0.0
2014-Oct-16 14:28N 44°24' E 008°54'0 0.0
2014-Oct-16 13:31N 44°24' E 008°54'0 0.0
2014-Oct-16 12:31N 44°24' E 008°54'0 0.0
2014-Oct-16 11:31N 44°24' E 008°54'0 0.0
2014-Oct-16 10:31N 44°24' E 008°54'0 0.0
2014-Oct-16 09:10N 44°24' E 008°54'0 0.0
2014-Oct-16 08:28N 44°24' E 008°54'0 0.0
2014-Oct-16 07:31N 44°24' E 008°54'0 0.0
2014-Oct-16 06:31N 44°24' E 008°54'0 0.0
2014-Oct-16 05:25N 44°24' E 008°54'0 0.0
2014-Oct-16 04:07N 44°24' E 008°54'0 0.0
2014-Oct-16 03:28N 44°24' E 008°54'0 0.0
2014-Oct-16 02:25N 44°24' E 008°54'0 0.0
2014-Oct-16 00:16N 44°24' E 008°54'0 0.0
2014-Oct-15 21:19N 44°24' E 008°54'0 0.0
2014-Oct-15 19:22N 44°24' E 008°54'0 0.0
2014-Oct-15 18:13N 44°24' E 008°54'0 0.0
2014-Oct-15 17:33N 44°24' E 008°54'3 3.0
2014-Oct-15 16:33N 44°22' E 008°58'7 7.2
2014-Oct-15 15:33N 44°16' E 008°53'8 8.4
2014-Oct-15 14:33N 44°10' E 008°44'9 8.3
2014-Oct-15 13:31N 44°04' E 008°36'56 8.0
2014-Oct-15 06:30N 43°28' E 007°36'10 7.8
2014-Oct-15 05:10N 43°22' E 007°24'13 7.7
2014-Oct-15 03:28N 43°14' E 007°10'7 7.8
2014-Oct-15 02:33N 43°10' E 007°02'8 7.7
2014-Oct-15 01:33N 43°06' E 006°53'8 7.6
2014-Oct-15 00:33N 43°01' E 006°45'71 6.5
2014-Oct-14 13:33N 43°12' E 005°09'8 7.7
2014-Oct-14 12:33N 43°17' E 005°02'8 7.5
2014-Oct-14 11:33N 43°23' E 004°55'5 4.9
2014-Oct-14 10:33N 43°23' E 004°49'0 0.1
2014-Oct-14 09:33N 43°23' E 004°48'4 4.0
2014-Oct-14 08:33N 43°26' E 004°44'  
Track history (hours):
 
Tides and Currents Weather Stations Pressure Air Temp Water Temp Dewpoint Dewpoint Depression Visibility Wind Speed Wind Dir Waves Ship Positions

Eems Trader

Last reported at 2014-Oct-21 19:33 UTC. Time now 2014-Oct-23 03:05 UTC.
Position N 39°23' E 008°14'.

; draft 4.3 m.

Type: Cargo ship. MMSI: 305182000.

Date/timePositionNaut miles runAvg speedWind from/ knotsBaromVisibWave heightAir tempDewpointWater temp
2014-Oct-21 19:33N 39°23' E 008°14'21 9.8
2014-Oct-21 17:27N 39°43' E 008°21'14 0.4
2014-Oct-20 07:06N 39°52' E 008°34'15 5.5
2014-Oct-20 04:27N 39°48' E 008°16'8 8.4
2014-Oct-20 03:33N 39°53' E 008°08'73 8.9
2014-Oct-19 19:22N 40°52' E 007°13'8 9.2
2014-Oct-19 18:33N 40°59' E 007°08'9 9.2
2014-Oct-19 17:32N 41°06' E 007°01'10 9.0
2014-Oct-19 16:23N 41°15' E 006°53'7 8.8
2014-Oct-19 15:33N 41°21' E 006°48'9 8.7
2014-Oct-19 14:33N 41°28' E 006°41'9 8.6
2014-Oct-19 13:31N 41°35' E 006°34'10 8.8
2014-Oct-19 12:23N 41°43' E 006°26'11 9.0
2014-Oct-19 11:11N 41°52' E 006°18'8 8.9
2014-Oct-19 10:16N 41°59' E 006°11'52 6.7
2014-Oct-19 02:27N 42°41' E 005°30'22 7.4
2014-Oct-18 23:25N 42°59' E 005°12'6 7.4
2014-Oct-18 22:33N 43°04' E 005°07'8 7.8
2014-Oct-18 21:33N 43°11' E 005°01'8 7.8
2014-Oct-18 20:33N 43°18' E 004°57'6 6.3
2014-Oct-18 19:33N 43°24' E 004°53'3 3.4
2014-Oct-18 18:33N 43°23' E 004°49'5 5.3
2014-Oct-18 17:33N 43°28' E 004°45'8 7.6
2014-Oct-18 16:33N 43°35' E 004°41'3 0.2
2014-Oct-18 01:09N 43°37' E 004°39'4 6.1
2014-Oct-18 00:33N 43°34' E 004°41'7 7.4
2014-Oct-17 23:34N 43°27' E 004°45'5 5.0
2014-Oct-17 22:34N 43°23' E 004°49'4 4.1
2014-Oct-17 21:33N 43°24' E 004°54'7 6.7
2014-Oct-17 20:33N 43°18' E 004°60'8 8.4
2014-Oct-17 19:33N 43°11' E 005°05'12 9.0
2014-Oct-17 18:13N 43°05' E 005°19'8 9.5
2014-Oct-17 17:25N 43°02' E 005°29'9 8.1
2014-Oct-17 16:17N 42°58' E 005°40'6 8.4
2014-Oct-17 15:33N 42°55' E 005°48'11 8.8
2014-Oct-17 14:19N 42°54' E 006°02'8 9.1
2014-Oct-17 13:25N 42°54' E 006°14'16 8.1
2014-Oct-17 11:30N 42°57' E 006°34'7 7.8
2014-Oct-17 10:33N 43°00' E 006°44'8 7.8
2014-Oct-17 09:33N 43°05' E 006°52'6 6.0
2014-Oct-17 08:33N 43°08' E 006°59'8 8.4
2014-Oct-17 07:33N 43°13' E 007°09'78 8.5
2014-Oct-16 22:22N 44°02' E 008°33'7 8.4
2014-Oct-16 21:33N 44°07' E 008°40'8 8.2
2014-Oct-16 20:33N 44°13' E 008°48'8 8.1
2014-Oct-16 19:32N 44°19' E 008°56'5 5.3
2014-Oct-16 18:33N 44°24' E 008°54'0 0.0
2014-Oct-16 17:22N 44°24' E 008°54'0 0.0
2014-Oct-16 16:31N 44°24' E 008°54'0 0.0
2014-Oct-16 15:31N 44°24' E 008°54'0 0.0
2014-Oct-16 14:28N 44°24' E 008°54'0 0.0
2014-Oct-16 13:31N 44°24' E 008°54'0 0.0
2014-Oct-16 12:31N 44°24' E 008°54'0 0.0
2014-Oct-16 11:31N 44°24' E 008°54'0 0.0
2014-Oct-16 10:31N 44°24' E 008°54'0 0.0
2014-Oct-16 09:10N 44°24' E 008°54'0 0.0
2014-Oct-16 08:28N 44°24' E 008°54'0 0.0
2014-Oct-16 07:31N 44°24' E 008°54'0 0.0
2014-Oct-16 06:31N 44°24' E 008°54'0 0.0
2014-Oct-16 05:25N 44°24' E 008°54'0 0.0
2014-Oct-16 04:07N 44°24' E 008°54'0 0.0
2014-Oct-16 03:28N 44°24' E 008°54'0 0.0
2014-Oct-16 02:25N 44°24' E 008°54'0 0.0
2014-Oct-16 00:16N 44°24' E 008°54'0 0.0
2014-Oct-15 21:19N 44°24' E 008°54'0 0.0
2014-Oct-15 19:22N 44°24' E 008°54'0 0.0
2014-Oct-15 18:13N 44°24' E 008°54'0 0.0
2014-Oct-15 17:33N 44°24' E 008°54'3 3.0
2014-Oct-15 16:33N 44°22' E 008°58'7 7.2
2014-Oct-15 15:33N 44°16' E 008°53'8 8.4
2014-Oct-15 14:33N 44°10' E 008°44'9 8.3
2014-Oct-15 13:31N 44°04' E 008°36'56 8.0
2014-Oct-15 06:30N 43°28' E 007°36'10 7.8
2014-Oct-15 05:10N 43°22' E 007°24'13 7.7
2014-Oct-15 03:28N 43°14' E 007°10'7 7.8
2014-Oct-15 02:33N 43°10' E 007°02'8 7.7
2014-Oct-15 01:33N 43°06' E 006°53'8 7.6
2014-Oct-15 00:33N 43°01' E 006°45'71 6.5
2014-Oct-14 13:33N 43°12' E 005°09'8 7.7
2014-Oct-14 12:33N 43°17' E 005°02'8 7.5
2014-Oct-14 11:33N 43°23' E 004°55'5 4.9
2014-Oct-14 10:33N 43°23' E 004°49'0 0.1
2014-Oct-14 09:33N 43°23' E 004°48'4 4.0
2014-Oct-14 08:33N 43°26' E 004°44'  

Dump ship's entire track history